createdAt,value
2023-01-21T00:01:03.753Z,9.30
2023-01-21T00:03:30.748Z,9.80
2023-01-21T00:06:00.566Z,8.40
2023-01-21T00:08:27.433Z,8.30
2023-01-21T00:10:54.877Z,8.90
2023-01-21T00:13:22.034Z,8.70
2023-01-21T00:15:48.924Z,8.00
2023-01-21T00:18:15.840Z,8.20
2023-01-21T00:20:42.991Z,8.70
2023-01-21T00:23:11.030Z,8.60
2023-01-21T00:25:38.019Z,8.00
2023-01-21T00:28:05.093Z,8.50
2023-01-21T00:30:32.207Z,7.30
2023-01-21T00:32:59.219Z,8.80
2023-01-21T00:35:26.122Z,7.10
2023-01-21T00:37:53.080Z,9.40
2023-01-21T00:40:19.995Z,8.20
2023-01-21T00:42:46.979Z,9.20
2023-01-21T00:45:14.025Z,8.00
2023-01-21T00:47:40.943Z,7.80
2023-01-21T00:50:09.932Z,7.70
2023-01-21T00:52:36.924Z,9.70
2023-01-21T00:55:04.880Z,7.20
2023-01-21T00:57:31.855Z,6.80
2023-01-21T00:59:59.106Z,6.90
2023-01-21T01:02:26.051Z,7.40
2023-01-21T01:04:53.009Z,6.60
2023-01-21T01:07:19.885Z,7.20
2023-01-21T01:09:46.911Z,7.30
2023-01-21T01:12:13.858Z,6.40
2023-01-21T01:14:40.914Z,7.20
2023-01-21T01:17:07.833Z,8.00
2023-01-21T01:19:34.811Z,6.60
2023-01-21T01:22:01.761Z,7.30
2023-01-21T01:24:28.814Z,7.30
2023-01-21T01:26:55.764Z,7.80
2023-01-21T01:29:22.716Z,7.00
2023-01-21T01:31:49.692Z,7.60
2023-01-21T01:34:16.669Z,7.00
2023-01-21T01:36:43.703Z,7.00
2023-01-21T01:39:10.622Z,8.10
2023-01-21T01:41:37.573Z,7.20
2023-01-21T01:44:06.183Z,7.00
2023-01-21T01:46:35.350Z,7.00
2023-01-21T01:49:08.442Z,7.70
2023-01-21T01:51:54.876Z,8.20
2023-01-21T01:54:29.673Z,7.80
2023-01-21T01:56:58.058Z,6.90
2023-01-21T01:59:25.009Z,7.50
2023-01-21T02:01:52.001Z,7.40
2023-01-21T10:07:53.740Z,9.20
2023-01-21T10:10:25.189Z,10.00
2023-01-21T10:13:29.697Z,8.80
2023-01-21T10:15:56.618Z,7.20
2023-01-21T10:18:30.805Z,8.50
2023-01-21T10:21:03.754Z,9.10
2023-01-21T10:23:42.848Z,7.80
2023-01-21T10:26:12.366Z,10.40
2023-01-21T10:28:44.779Z,8.80
2023-01-21T10:31:15.620Z,9.00
2023-01-21T10:33:42.714Z,9.70
2023-01-21T10:36:27.988Z,8.00
2023-01-21T10:39:16.936Z,8.00
2023-01-21T10:41:43.802Z,8.90
2023-01-21T10:44:44.796Z,8.50
2023-01-21T10:47:20.539Z,11.20
2023-01-21T10:50:25.693Z,8.50
2023-01-21T10:52:57.543Z,8.40
2023-01-21T10:55:46.187Z,8.80
2023-01-21T10:58:47.627Z,8.20
2023-01-21T11:01:30.552Z,11.00
2023-01-21T11:03:59.668Z,10.60
2023-01-21T11:06:26.593Z,9.90
2023-01-21T11:08:58.790Z,8.80
2023-01-21T11:11:30.728Z,8.30
2023-01-21T11:13:57.783Z,9.80
2023-01-21T11:16:45.540Z,8.40
2023-01-21T11:19:32.889Z,10.30
2023-01-21T11:22:18.245Z,9.20
2023-01-21T11:24:49.228Z,8.70
2023-01-21T11:27:34.944Z,10.60
2023-01-21T11:30:02.507Z,9.80
2023-01-21T11:32:30.241Z,9.70
2023-01-21T11:35:15.973Z,9.90
2023-01-21T11:37:42.877Z,8.80
2023-01-21T11:40:24.937Z,10.80
2023-01-21T11:42:53.614Z,8.60
2023-01-21T11:45:33.603Z,8.40
2023-01-21T11:48:01.177Z,8.40
2023-01-21T11:50:34.840Z,8.40
2023-01-21T11:53:08.057Z,8.70
2023-01-21T11:55:42.789Z,8.40
2023-01-21T11:58:20.382Z,8.30
2023-01-21T12:00:48.293Z,8.80
2023-01-21T12:03:18.582Z,7.70
2023-01-21T12:05:48.522Z,8.70
2023-01-21T12:08:21.184Z,10.10
2023-01-21T12:10:48.121Z,8.40
2023-01-21T12:13:25.109Z,9.60
2023-01-21T12:16:04.448Z,9.20
2023-01-21T12:18:46.641Z,8.20
2023-01-21T12:21:28.230Z,9.60
2023-01-21T12:24:20.044Z,10.30
2023-01-21T12:27:26.015Z,10.80
2023-01-21T12:30:05.010Z,11.00
2023-01-21T12:32:39.446Z,9.80
2023-01-21T12:35:26.847Z,8.20
2023-01-21T12:38:06.880Z,9.50
2023-01-21T12:40:39.833Z,9.00
2023-01-21T12:43:49.510Z,8.70
2023-01-21T12:46:49.299Z,9.60
2023-01-21T12:49:42.250Z,8.90
2023-01-21T12:52:14.733Z,10.50
2023-01-21T12:55:08.591Z,9.70
2023-01-21T12:57:39.127Z,9.80
2023-01-21T13:00:23.777Z,8.60
2023-01-21T13:03:08.777Z,9.50
2023-01-21T13:05:37.630Z,7.80
2023-01-21T13:08:22.694Z,12.50
2023-01-21T13:10:53.382Z,11.90
2023-01-21T13:13:34.712Z,9.30
2023-01-21T13:16:05.606Z,9.80
2023-01-21T13:18:37.957Z,8.60
2023-01-21T13:21:12.876Z,8.80
2023-01-21T13:23:39.806Z,8.80
2023-01-21T13:26:14.331Z,10.60
2023-01-21T13:29:06.967Z,11.90
2023-01-21T13:32:08.894Z,13.50
2023-01-21T13:34:50.555Z,17.20
2023-01-21T13:37:49.897Z,15.80
2023-01-21T13:40:33.522Z,16.10
2023-01-21T13:43:29.308Z,11.60
2023-01-21T13:45:56.256Z,9.30
2023-01-21T13:48:41.956Z,10.60
2023-01-21T13:51:34.295Z,13.00
2023-01-21T13:54:16.787Z,15.70
2023-01-21T13:57:03.490Z,12.20
2023-01-21T13:59:34.378Z,8.70
2023-01-21T14:02:11.490Z,9.30
2023-01-21T14:05:07.815Z,9.70
